Time;durP1;ratioP1;P1;durP2;ratioP2;P2;SDS_P1;SDS_P2;PMS_P1;PMS_P2;Temp;Humidity;BMP_temperature;BMP_pressure;BME280_temperature;BME280_humidity;BME280_pressure;Samples;Min_cycle;Max_cycle;Signal;HPM_P1;HPM_P2
2022/09/14 00:00:08;;;;;;;5.07;1.13;;;;;;;15.68;80.15;99834.09;5054818;28;20214;-79
2022/09/14 00:02:36;;;;;;;4.83;1.20;;;;;;;15.67;79.87;99824.47;5054895;28;20317;-78
2022/09/14 00:05:03;;;;;;;2.90;1.37;;;;;;;15.66;80.40;99814.91;5054667;28;20226;-77
2022/09/14 00:07:29;;;;;;;3.87;1.53;;;;;;;15.66;80.89;99808.78;5054829;28;20205;-78
2022/09/14 00:09:56;;;;;;;5.53;2.10;;;;;;;15.64;81.04;99786.97;5055047;28;20203;-79
2022/09/14 00:12:23;;;;;;;2.57;1.30;;;;;;;15.58;81.03;99782.88;5054570;28;20209;-78
2022/09/14 00:14:50;;;;;;;4.10;1.40;;;;;;;15.54;81.08;99772.56;5054657;28;20233;-78
2022/09/14 00:17:16;;;;;;;3.40;1.17;;;;;;;15.53;80.98;99782.22;5054777;28;20259;-78
2022/09/14 00:19:45;;;;;;;4.77;1.50;;;;;;;15.49;81.29;99778.91;5054815;28;20217;-78
2022/09/14 00:22:11;;;;;;;3.37;1.33;;;;;;;15.57;80.79;99786.41;5054769;28;20277;-78
2022/09/14 00:24:38;;;;;;;4.77;1.70;;;;;;;15.57;80.66;99793.47;5054370;28;20271;-78
2022/09/14 00:27:04;;;;;;;3.17;1.37;;;;;;;15.58;80.48;99795.16;5054287;28;20210;-78
2022/09/14 00:29:32;;;;;;;2.67;1.40;;;;;;;15.55;80.54;99798.78;5053738;28;20210;-78
2022/09/14 00:31:58;;;;;;;2.90;1.27;;;;;;;15.55;80.54;99782.16;5054449;28;20205;-78
2022/09/14 00:34:25;;;;;;;1.97;1.10;;;;;;;15.57;80.35;99790.84;5054052;28;20226;-79
2022/09/14 00:36:54;;;;;;;1.87;0.93;;;;;;;15.55;80.61;99774.28;5054461;28;20203;-78
2022/09/14 00:39:23;;;;;;;1.33;0.90;;;;;;;15.54;80.14;99783.06;5054446;28;20215;-79
2022/09/14 00:41:51;;;;;;;4.30;1.33;;;;;;;15.58;80.09;99793.38;5054319;28;20319;-79
2022/09/14 00:44:58;;;;;;;5.00;1.83;;;;;;;15.53;79.97;99794.53;5054398;28;20231;-78
2022/09/14 00:47:25;;;;;;;2.77;1.00;;;;;;;15.52;79.82;99798.97;5054362;28;20209;-78
2022/09/14 00:49:51;;;;;;;3.50;1.00;;;;;;;15.52;79.71;99796.34;5053943;28;20297;-78
2022/09/14 00:52:23;;;;;;;3.30;1.30;;;;;;;15.52;79.64;99801.59;5054341;28;20661;-78
2022/09/14 00:54:52;;;;;;;6.53;2.90;;;;;;;15.50;79.81;99803.44;5054041;28;20231;-78
2022/09/14 00:57:19;;;;;;;4.83;1.73;;;;;;;15.39;80.13;99797.84;5054291;28;20202;-78
2022/09/14 00:59:48;;;;;;;3.57;1.23;;;;;;;15.33;80.16;99788.47;5054194;28;20262;-79
2022/09/14 01:02:15;;;;;;;3.63;1.57;;;;;;;15.32;80.61;99776.28;5053779;28;20230;-78
2022/09/14 01:04:42;;;;;;;2.83;1.00;;;;;;;15.29;81.61;99750.97;5053587;28;20230;-78
2022/09/14 01:07:22;;;;;;;3.73;1.40;;;;;;;15.29;81.44;99737.81;5054058;28;20206;-77
2022/09/14 01:10:02;;;;;;;3.37;1.00;;;;;;;15.34;80.98;99739.38;5054478;28;20195;-78
2022/09/14 01:12:38;;;;;;;4.17;1.73;;;;;;;15.26;80.68;99753.75;5054109;28;20626;-79
2022/09/14 01:15:11;;;;;;;4.20;1.30;;;;;;;15.26;80.62;99759.03;5054114;28;20284;-79
2022/09/14 01:17:43;;;;;;;5.30;1.53;;;;;;;15.24;80.52;99760.00;5054268;28;20241;-77
2022/09/14 01:20:24;;;;;;;4.50;1.50;;;;;;;15.23;80.19;99772.31;5053927;28;20209;-78
2022/09/14 01:22:58;;;;;;;2.87;1.00;;;;;;;15.23;79.83;99781.97;5053862;28;20226;-79
2022/09/14 01:25:45;;;;;;;3.13;1.20;;;;;;;15.20;79.97;99793.50;5053247;28;20579;-79
2022/09/14 01:28:22;;;;;;;4.27;1.40;;;;;;;15.22;79.93;99796.03;5053587;28;20214;-79
2022/09/14 01:30:53;;;;;;;2.10;1.07;;;;;;;15.17;79.84;99796.28;5053779;28;20288;-79
2022/09/14 01:33:25;;;;;;;1.97;0.93;;;;;;;15.16;79.93;99789.28;5053649;28;20279;-78
2022/09/14 01:35:55;;;;;;;3.30;1.40;;;;;;;15.10;80.04;99779.06;5045861;28;20281;-79
2022/09/14 01:38:27;;;;;;;3.40;1.40;;;;;;;15.14;80.01;99771.91;5053826;28;20216;-79
2022/09/14 01:40:56;;;;;;;4.83;1.50;;;;;;;15.12;80.35;99782.47;5053801;28;20783;-78
2022/09/14 01:43:29;;;;;;;3.30;1.07;;;;;;;15.13;80.16;99763.16;5053817;28;20202;-78
2022/09/14 01:45:59;;;;;;;6.93;1.10;;;;;;;15.08;80.38;99773.91;5055677;28;20689;-77
2022/09/14 01:48:32;;;;;;;4.03;0.90;;;;;;;15.08;80.23;99754.66;5055074;28;20213;-77
2022/09/14 01:51:00;;;;;;;3.83;1.23;;;;;;;15.08;80.07;99754.66;5055843;28;20202;-77
2022/09/14 01:53:33;;;;;;;1.43;0.73;;;;;;;15.03;80.75;99740.88;5055496;28;20210;-77
2022/09/14 01:56:03;;;;;;;2.07;1.07;;;;;;;14.99;80.86;99734.09;5055488;28;20241;-78
2022/09/14 01:58:34;;;;;;;1.43;0.70;;;;;;;14.93;81.12;99732.59;5055456;28;20252;-78
2022/09/14 02:01:04;;;;;;;2.77;1.27;;;;;;;14.89;80.97;99726.63;5056014;28;20267;-77
2022/09/14 02:03:37;;;;;;;2.87;1.07;;;;;;;14.87;80.33;99727.63;5057390;28;20255;-77
2022/09/14 02:06:11;;;;;;;3.77;1.03;;;;;;;14.84;80.38;99743.53;5059188;28;20216;-77
2022/09/14 02:08:38;;;;;;;4.70;2.13;;;;;;;14.74;81.14;99726.50;5059187;28;20232;-77
2022/09/14 02:11:04;;;;;;;3.17;1.03;;;;;;;14.69;82.02;99698.69;5058933;28;20206;-76
2022/09/14 02:13:32;;;;;;;1.93;1.10;;;;;;;14.67;81.67;99711.06;5058037;28;20296;-77
2022/09/14 02:15:59;;;;;;;2.67;0.80;;;;;;;14.61;82.28;99687.72;5055028;28;20201;-77
2022/09/14 02:18:25;;;;;;;3.73;1.53;;;;;;;14.62;82.21;99684.13;5053834;28;20213;-78
2022/09/14 02:20:55;;;;;;;2.83;1.00;;;;;;;14.63;82.31;99672.72;5054150;28;20202;-78
2022/09/14 02:23:23;;;;;;;1.97;0.83;;;;;;;14.64;82.12;99678.81;5053918;28;20229;-77
2022/09/14 02:25:49;;;;;;;3.97;1.10;;;;;;;14.66;82.04;99695.34;5054048;28;20263;-78
2022/09/14 02:28:16;;;;;;;3.50;1.10;;;;;;;14.62;82.08;99701.69;5054068;28;20216;-77
2022/09/14 02:30:54;;;;;;;4.33;1.30;;;;;;;14.65;81.31;99709.44;5054247;28;20236;-77
2022/09/14 02:33:28;;;;;;;5.40;1.00;;;;;;;14.65;81.09;99733.06;5054185;28;20271;-77
2022/09/14 02:35:56;;;;;;;4.00;1.17;;;;;;;14.71;80.75;99735.41;5053935;28;20216;-77
2022/09/14 02:38:34;;;;;;;4.20;1.23;;;;;;;14.67;80.29;99749.63;5054180;28;20231;-77
2022/09/14 02:41:09;;;;;;;3.20;1.30;;;;;;;14.65;80.51;99754.09;5053899;28;20288;-77
2022/09/14 02:43:46;;;;;;;3.77;1.10;;;;;;;14.64;80.55;99750.59;5053822;28;20201;-77
2022/09/14 02:46:26;;;;;;;5.23;1.27;;;;;;;14.58;80.40;99750.88;5053332;28;20205;-77
2022/09/14 02:49:03;;;;;;;3.30;1.07;;;;;;;14.66;80.52;99735.59;5053814;28;20201;-77
2022/09/14 02:51:33;;;;;;;2.53;1.27;;;;;;;14.68;80.46;99740.78;5053427;28;20649;-77
2022/09/14 02:54:04;;;;;;;1.83;1.00;;;;;;;14.66;80.76;99725.09;5056106;28;20229;-77
2022/09/14 02:56:32;;;;;;;2.73;1.00;;;;;;;14.69;80.85;99722.34;5058138;28;20748;-77
2022/09/14 02:58:59;;;;;;;5.30;1.83;;;;;;;14.66;81.45;99705.84;5058057;28;20612;-77
2022/09/14 03:01:27;;;;;;;3.53;1.10;;;;;;;14.71;81.51;99690.75;5058021;28;20258;-77
2022/09/14 03:03:53;;;;;;;5.07;1.90;;;;;;;14.69;81.88;99689.97;5057985;28;20225;-77
2022/09/14 03:06:20;;;;;;;3.23;1.37;;;;;;;14.61;82.49;99673.72;5057737;28;20675;-77
2022/09/14 03:08:47;;;;;;;4.47;1.30;;;;;;;14.46;83.22;99649.84;5058054;28;20209;-77
2022/09/14 03:11:13;;;;;;;4.90;1.40;;;;;;;14.29;84.44;99606.03;5057783;28;20288;-77
2022/09/14 03:13:40;;;;;;;2.90;1.40;;;;;;;14.25;85.31;99579.97;5057793;28;20201;-77
2022/09/14 03:16:07;;;;;;;4.00;1.50;;;;;;;14.17;86.03;99562.00;5057845;28;20209;-77
2022/09/14 03:18:36;;;;;;;3.73;1.40;;;;;;;14.03;87.07;99525.03;5057804;28;20205;-77
2022/09/14 03:21:04;;;;;;;5.03;1.47;;;;;;;13.94;88.10;99502.72;5057127;28;20209;-77
2022/09/14 03:23:30;;;;;;;4.27;1.60;;;;;;;13.99;88.36;99476.25;5056978;28;20320;-77
2022/09/14 03:25:57;;;;;;;2.97;1.67;;;;;;;14.06;88.19;99467.19;5056975;28;20216;-77
2022/09/14 03:28:23;;;;;;;2.67;1.23;;;;;;;14.18;88.33;99468.34;5056651;28;20247;-77
2022/09/14 03:30:49;;;;;;;2.40;1.20;;;;;;;14.23;87.75;99484.72;5057646;28;20210;-77
2022/09/14 03:33:16;;;;;;;6.37;2.20;;;;;;;14.29;87.31;99501.03;5056452;28;20583;-77
2022/09/14 03:35:44;;;;;;;2.67;1.23;;;;;;;14.36;87.19;99516.47;5056843;28;20267;-77
2022/09/14 03:38:10;;;;;;;3.03;1.40;;;;;;;14.38;87.27;99518.09;5057351;28;20263;-77
2022/09/14 03:40:36;;;;;;;4.87;2.07;;;;;;;14.46;86.81;99520.34;5057016;28;20232;-77
2022/09/14 03:43:03;;;;;;;5.30;1.60;;;;;;;14.49;86.29;99539.41;5056778;28;20233;-77
2022/09/14 03:45:29;;;;;;;2.90;1.30;;;;;;;14.53;85.39;99555.00;5056956;28;20226;-77
2022/09/14 03:47:55;;;;;;;4.53;1.33;;;;;;;14.55;85.36;99574.16;5056664;28;20631;-77
2022/09/14 03:50:22;;;;;;;1.57;1.20;;;;;;;14.60;85.06;99580.09;5056799;28;20260;-77
2022/09/14 03:52:50;;;;;;;4.37;1.50;;;;;;;14.62;84.51;99588.75;5056665;28;20749;-77
2022/09/14 03:55:18;;;;;;;2.03;1.50;;;;;;;14.56;85.00;99591.63;5056423;28;20283;-77
2022/09/14 03:57:44;;;;;;;4.07;1.27;;;;;;;14.53;85.02;99576.00;5056986;28;20263;-77
2022/09/14 04:00:11;;;;;;;2.73;1.50;;;;;;;14.47;85.19;99559.66;5056930;28;20271;-77
2022/09/14 04:02:38;;;;;;;2.10;1.37;;;;;;;14.36;85.78;99548.81;5056367;28;20226;-77
2022/09/14 04:05:05;;;;;;;2.47;1.67;;;;;;;14.39;85.60;99550.44;5055628;28;20307;-77
2022/09/14 04:07:32;;;;;;;3.17;1.50;;;;;;;14.43;85.20;99550.22;5056577;28;20206;-77
2022/09/14 04:10:00;;;;;;;4.23;1.90;;;;;;;14.43;85.07;99551.97;5056198;28;20206;-77
2022/09/14 04:12:26;;;;;;;3.73;1.57;;;;;;;14.46;84.83;99555.31;5056636;28;20255;-77
2022/09/14 04:14:53;;;;;;;2.47;1.53;;;;;;;14.51;84.88;99568.25;5055321;28;20647;-77
2022/09/14 04:17:19;;;;;;;4.00;1.50;;;;;;;14.47;84.07;99585.91;5056043;28;20251;-77
2022/09/14 04:19:45;;;;;;;3.33;1.23;;;;;;;14.50;84.24;99584.91;5056859;28;20209;-77
2022/09/14 04:22:12;;;;;;;3.13;1.87;;;;;;;14.53;84.28;99589.16;5056388;28;20279;-77
2022/09/14 04:24:38;;;;;;;2.80;1.20;;;;;;;14.53;84.15;99587.41;5055773;28;20264;-77
2022/09/14 04:27:06;;;;;;;4.73;1.23;;;;;;;14.53;83.88;99597.91;5056422;28;20209;-77
2022/09/14 04:29:33;;;;;;;3.60;1.20;;;;;;;14.53;84.17;99600.53;5056461;28;20225;-77
2022/09/14 04:31:59;;;;;;;5.17;1.20;;;;;;;14.43;84.19;99587.00;5058312;28;20210;-77
2022/09/14 04:34:26;;;;;;;2.10;1.17;;;;;;;14.30;84.38;99599.00;5056002;28;20229;-77
2022/09/14 04:36:52;;;;;;;6.23;2.80;;;;;;;14.29;84.22;99595.53;5055862;28;20275;-77
2022/09/14 04:39:19;;;;;;;3.50;1.30;;;;;;;14.26;83.61;99606.16;5055733;28;20209;-77
2022/09/14 04:41:46;;;;;;;2.33;1.40;;;;;;;14.23;84.22;99602.81;5055708;28;20248;-77
2022/09/14 04:44:14;;;;;;;3.17;1.30;;;;;;;14.21;84.78;99578.44;5056028;28;20232;-77
2022/09/14 04:46:41;;;;;;;4.00;1.20;;;;;;;14.07;85.67;99552.84;5055587;28;20206;-77
2022/09/14 04:49:08;;;;;;;5.93;1.20;;;;;;;13.97;86.54;99526.19;5055576;28;20619;-77
2022/09/14 04:51:36;;;;;;;3.83;1.17;;;;;;;14.02;85.69;99523.38;5051894;28;20228;-77
2022/09/14 04:54:06;;;;;;;3.03;1.10;;;;;;;13.89;85.93;99529.19;5044194;28;20331;-77
2022/09/14 04:56:36;;;;;;;3.10;1.27;;;;;;;13.94;85.97;99528.13;5046414;28;20221;-77
2022/09/14 04:59:04;;;;;;;1.50;1.07;;;;;;;13.95;85.13;99546.41;5043730;28;20209;-77
2022/09/14 05:01:34;;;;;;;3.63;1.50;;;;;;;13.95;85.07;99554.28;5045750;28;20208;-77
2022/09/14 05:04:00;;;;;;;3.30;1.50;;;;;;;13.93;85.82;99536.91;5048260;28;20243;-77
2022/09/14 05:06:29;;;;;;;1.10;1.00;;;;;;;13.78;86.35;99515.72;5049832;28;20198;-77
2022/09/14 05:08:58;;;;;;;3.87;1.20;;;;;;;13.69;86.80;99503.03;5046751;28;20228;-77
2022/09/14 05:11:27;;;;;;;3.93;1.30;;;;;;;13.65;87.79;99478.72;5043632;28;20298;-77
2022/09/14 05:13:55;;;;;;;3.90;1.47;;;;;;;13.70;88.02;99458.38;5044946;28;20784;-77
2022/09/14 05:16:24;;;;;;;3.53;1.30;;;;;;;13.71;88.77;99456.59;5045233;28;20201;-77
2022/09/14 05:18:54;;;;;;;1.90;1.00;;;;;;;13.75;88.53;99457.31;5045815;28;20671;-77
2022/09/14 05:21:22;;;;;;;2.40;1.10;;;;;;;13.73;88.74;99465.25;5045423;28;20206;-77
2022/09/14 05:23:54;;;;;;;2.67;1.00;;;;;;;13.73;88.41;99470.50;5046511;28;20225;-77
2022/09/14 05:26:21;;;;;;;2.80;1.10;;;;;;;13.77;87.55;99494.81;5046475;28;20199;-77
2022/09/14 05:28:50;;;;;;;4.00;1.13;;;;;;;13.81;86.87;99501.59;5046101;28;20214;-77
2022/09/14 05:31:17;;;;;;;3.07;1.10;;;;;;;13.85;86.68;99519.75;5047114;28;20201;-77
2022/09/14 05:33:43;;;;;;;4.17;1.33;;;;;;;13.84;87.40;99517.22;5044907;28;20742;-77
2022/09/14 05:36:11;;;;;;;2.23;1.30;;;;;;;13.87;87.41;99515.31;5049126;28;20252;-77
2022/09/14 05:38:39;;;;;;;3.40;1.07;;;;;;;13.82;86.84;99519.06;5047349;28;20197;-77
2022/09/14 05:41:07;;;;;;;2.87;1.00;;;;;;;13.82;87.36;99498.91;5054046;28;20201;-77
2022/09/14 05:43:34;;;;;;;1.67;1.00;;;;;;;13.85;87.73;99503.16;5054074;28;20226;-77
2022/09/14 05:46:01;;;;;;;2.47;1.10;;;;;;;13.80;88.11;99487.66;5053909;28;20617;-77
2022/09/14 05:48:27;;;;;;;3.47;1.03;;;;;;;13.82;88.28;99484.97;5054583;28;20209;-77
2022/09/14 05:50:58;;;;;;;8.10;2.03;;;;;;;13.88;86.80;99510.91;5054071;28;20208;-77
2022/09/14 05:53:25;;;;;;;2.13;1.10;;;;;;;13.90;87.77;99509.06;5054282;28;20206;-77
2022/09/14 05:55:59;;;;;;;3.23;1.37;;;;;;;13.92;88.22;99493.25;5053793;28;20239;-77
2022/09/14 05:58:26;;;;;;;3.97;1.40;;;;;;;13.94;88.24;99487.00;5053822;28;20204;-77
2022/09/14 06:00:53;;;;;;;5.23;1.10;;;;;;;13.97;88.56;99481.59;5044663;28;20202;-77
2022/09/14 06:03:19;;;;;;;3.37;1.80;;;;;;;14.06;87.82;99493.44;5042184;28;20530;-77
2022/09/14 06:05:45;;;;;;;3.50;1.00;;;;;;;14.16;88.14;99488.56;5051976;28;20723;-77
2022/09/14 06:08:12;;;;;;;9.33;2.50;;;;;;;14.20;87.16;99504.09;5048321;28;20213;-77
2022/09/14 06:10:40;;;;;;;3.67;1.90;;;;;;;14.27;87.05;99515.13;5044361;28;20259;-77
2022/09/14 06:13:06;;;;;;;2.90;1.27;;;;;;;14.34;87.48;99492.91;5044213;28;20197;-77
2022/09/14 06:15:33;;;;;;;4.20;1.30;;;;;;;14.39;87.92;99485.66;5043520;28;20218;-77
2022/09/14 06:17:59;;;;;;;5.67;1.23;;;;;;;14.45;88.02;99482.72;5042638;28;20213;-79
2022/09/14 06:20:25;;;;;;;2.70;1.00;;;;;;;14.50;87.58;99493.84;5051950;28;20201;-81
2022/09/14 06:22:52;;;;;;;4.47;1.47;;;;;;;14.58;87.44;99497.91;5044914;28;20218;-82
2022/09/14 06:25:18;;;;;;;3.20;1.70;;;;;;;14.50;84.15;99571.78;5046014;28;20381;-82
2022/09/14 06:27:46;;;;;;;1.60;1.10;;;;;;;14.52;83.34;99624.22;5043675;28;20256;-84
2022/09/14 06:30:15;;;;;;;5.80;1.30;;;;;;;14.63;84.04;99621.97;5055972;28;20209;-83
2022/09/14 06:32:47;;;;;;;3.30;0.97;;;;;;;14.65;85.86;99571.06;5044855;28;20198;-83
2022/09/14 06:35:16;;;;;;;3.37;1.00;;;;;;;14.66;86.77;99535.97;5049920;28;20224;-76
2022/09/14 06:37:42;;;;;;;1.57;0.70;;;;;;;14.65;86.61;99521.16;5046301;28;20222;-85
2022/09/14 06:40:10;;;;;;;4.20;1.10;;;;;;;14.75;86.60;99518.91;5045085;28;20230;-83
2022/09/14 06:42:36;;;;;;;3.07;1.10;;;;;;;14.68;86.57;99518.34;5047445;28;20223;-81
2022/09/14 06:45:05;;;;;;;2.07;0.83;;;;;;;14.76;86.28;99514.50;5048742;28;20722;-80
2022/09/14 06:47:32;;;;;;;1.37;1.23;;;;;;;14.82;85.91;99537.81;5049062;28;20276;-80
2022/09/14 06:49:58;;;;;;;2.50;1.30;;;;;;;14.84;86.17;99547.31;5047323;28;20204;-81
2022/09/14 06:52:25;;;;;;;2.57;1.20;;;;;;;14.87;86.42;99523.53;5048941;28;20216;-80
2022/09/14 06:54:51;;;;;;;1.10;1.03;;;;;;;14.89;85.40;99541.84;5045459;28;20214;-80
2022/09/14 06:57:18;;;;;;;1.97;0.90;;;;;;;14.97;84.82;99565.09;5058220;28;20210;-80
2022/09/14 06:59:44;;;;;;;2.57;0.90;;;;;;;14.95;84.21;99590.63;5060822;28;20214;-77
2022/09/14 07:02:13;;;;;;;2.17;1.13;;;;;;;14.96;84.18;99603.66;5056427;28;20267;-84
2022/09/14 07:04:40;;;;;;;1.80;1.20;;;;;;;14.95;83.97;99607.22;5056866;28;20674;-80
2022/09/14 07:07:06;;;;;;;6.63;1.30;;;;;;;14.98;83.89;99620.19;5057201;28;20247;-80
2022/09/14 07:09:32;;;;;;;3.77;2.00;;;;;;;15.02;84.00;99608.59;5058442;28;20718;-79
2022/09/14 07:11:59;;;;;;;3.23;1.67;;;;;;;15.09;83.65;99615.25;5059029;28;20217;-80
2022/09/14 07:14:25;;;;;;;4.07;1.60;;;;;;;15.10;83.38;99623.97;5058957;28;20223;-80
2022/09/14 07:16:52;;;;;;;6.33;1.37;;;;;;;15.16;82.83;99649.97;5058725;28;20205;-79
2022/09/14 07:19:19;;;;;;;3.23;1.40;;;;;;;15.21;82.82;99652.38;5057010;28;20213;-75
2022/09/14 07:21:47;;;;;;;2.83;1.57;;;;;;;15.21;83.04;99655.84;5050957;28;20279;-75
2022/09/14 07:24:14;;;;;;;4.57;1.47;;;;;;;15.28;83.17;99656.38;5051334;28;20230;-75
2022/09/14 07:26:42;;;;;;;2.80;1.40;;;;;;;15.31;82.71;99658.03;5050833;28;20209;-75
2022/09/14 07:29:12;;;;;;;4.43;1.70;;;;;;;15.40;82.16;99668.91;5049776;28;20268;-75
2022/09/14 07:31:41;;;;;;;3.33;1.97;;;;;;;15.38;81.75;99680.44;5051399;28;20683;-75
2022/09/14 07:34:08;;;;;;;4.17;1.50;;;;;;;15.46;82.57;99665.97;5051385;28;20280;-76
2022/09/14 07:36:37;;;;;;;2.83;1.37;;;;;;;15.53;81.12;99692.78;5050625;28;20664;-76
2022/09/14 07:39:06;;;;;;;4.93;1.50;;;;;;;15.56;81.18;99703.19;5049820;28;20205;-76
2022/09/14 07:41:34;;;;;;;2.30;1.67;;;;;;;15.56;80.59;99708.44;5053439;28;20673;-76
2022/09/14 07:44:02;;;;;;;3.80;1.20;;;;;;;15.61;80.07;99737.97;5054537;28;20232;-76
2022/09/14 07:46:31;;;;;;;3.10;1.47;;;;;;;15.64;79.74;99743.09;5048468;28;20212;-76
2022/09/14 07:48:59;;;;;;;3.33;1.10;;;;;;;15.63;79.24;99751.06;5034415;28;20576;-76
2022/09/14 07:51:27;;;;;;;2.53;1.00;;;;;;;15.64;78.72;99765.94;5034703;28;20742;-76
2022/09/14 07:53:55;;;;;;;2.13;1.20;;;;;;;15.64;77.50;99797.50;5034814;28;20223;-76
2022/09/14 07:56:24;;;;;;;2.57;1.00;;;;;;;15.62;77.27;99831.78;5034175;28;20268;-75
2022/09/14 07:58:54;;;;;;;4.50;0.90;;;;;;;15.67;77.36;99834.16;5045246;28;20278;-75
2022/09/14 08:01:21;;;;;;;5.33;1.20;;;;;;;15.77;77.19;99824.91;5044620;28;20572;-76
2022/09/14 08:03:48;;;;;;;3.67;1.33;;;;;;;15.73;76.77;99836.50;5037712;28;20261;-76
2022/09/14 08:06:18;;;;;;;3.50;0.90;;;;;;;15.80;77.31;99829.19;5054048;28;20199;-76
2022/09/14 08:08:46;;;;;;;2.57;1.40;;;;;;;15.82;77.39;99819.44;5055873;28;20259;-81
2022/09/14 08:11:18;;;;;;;4.70;1.30;;;;;;;15.85;76.96;99820.09;5058047;28;20209;-79
2022/09/14 08:13:48;;;;;;;3.43;1.40;;;;;;;15.84;76.02;99855.25;5058573;28;20226;-79
2022/09/14 08:16:15;;;;;;;3.30;1.30;;;;;;;15.85;75.33;99874.53;5056817;28;20256;-79
2022/09/14 08:18:41;;;;;;;3.00;0.90;;;;;;;15.90;75.36;99883.06;5048536;28;20201;-79
2022/09/14 08:21:10;;;;;;;4.87;1.40;;;;;;;15.93;75.75;99879.41;5047123;28;20203;-79
2022/09/14 08:23:37;;;;;;;3.70;1.70;;;;;;;16.01;75.99;99853.56;5046376;28;20215;-79
2022/09/14 08:26:05;;;;;;;3.07;1.40;;;;;;;16.09;76.40;99843.47;5047478;28;20206;-79
2022/09/14 08:28:35;;;;;;;2.73;1.20;;;;;;;16.15;75.53;99853.69;5048705;28;20270;-79
2022/09/14 08:31:03;;;;;;;3.23;1.30;;;;;;;16.20;75.22;99883.28;5046042;28;20265;-79
2022/09/14 08:33:31;;;;;;;4.43;1.10;;;;;;;16.25;74.80;99891.81;5051531;28;20225;-79
2022/09/14 08:35:57;;;;;;;4.07;1.20;;;;;;;16.31;74.50;99900.31;5053690;28;20208;-79
2022/09/14 08:38:24;;;;;;;3.17;1.80;;;;;;;16.35;73.88;99917.66;5050837;28;20658;-79
2022/09/14 08:40:51;;;;;;;17.47;2.43;;;;;;;16.44;73.84;99917.19;5046798;28;20678;-79
2022/09/14 08:43:19;;;;;;;6.17;1.93;;;;;;;16.53;73.70;99919.38;5048475;28;20262;-79
2022/09/14 08:45:48;;;;;;;2.47;1.37;;;;;;;16.53;73.38;99927.28;5048083;28;20219;-78
2022/09/14 08:48:23;;;;;;;4.13;1.40;;;;;;;16.61;73.69;99925.09;5047008;28;20206;-79
2022/09/14 08:50:52;;;;;;;4.77;1.40;;;;;;;16.64;73.46;99924.06;5046216;28;20200;-78
2022/09/14 08:53:19;;;;;;;3.03;1.33;;;;;;;16.60;73.35;99928.63;5048825;28;20195;-78
2022/09/14 08:55:51;;;;;;;4.23;1.37;;;;;;;16.54;74.10;99910.50;5047117;28;20225;-78
2022/09/14 08:58:28;;;;;;;4.43;1.60;;;;;;;16.57;74.70;99869.97;5048541;28;20615;-78
2022/09/14 09:01:02;;;;;;;2.90;1.67;;;;;;;16.59;73.94;99881.28;5048967;28;20209;-78
2022/09/14 09:03:48;;;;;;;4.67;1.50;;;;;;;16.57;74.95;99857.66;5046637;28;20226;-79
2022/09/14 09:06:18;;;;;;;3.37;1.40;;;;;;;16.77;74.43;99861.00;5054715;28;20212;-78
2022/09/14 09:08:56;;;;;;;4.17;1.67;;;;;;;16.97;73.80;99871.34;5056173;28;20673;-78
2022/09/14 09:11:27;;;;;;;2.70;1.30;;;;;;;17.13;72.55;99916.19;5057239;28;20212;-78
2022/09/14 09:13:55;;;;;;;2.53;1.60;;;;;;;17.16;72.37;99942.41;5056538;28;20224;-78
2022/09/14 09:16:25;;;;;;;6.53;1.70;;;;;;;17.20;73.76;99898.25;5057039;28;20212;-79
2022/09/14 09:18:57;;;;;;;5.40;1.40;;;;;;;17.31;72.63;99889.75;5044296;28;20259;-79
2022/09/14 09:21:28;;;;;;;4.10;1.30;;;;;;;17.44;72.48;99903.94;5037140;28;20209;-79
2022/09/14 09:23:58;;;;;;;5.80;1.10;;;;;;;17.52;71.70;99936.06;5036741;28;20236;-78
2022/09/14 09:26:28;;;;;;;2.77;1.40;;;;;;;17.62;70.94;99965.41;5044670;28;20635;-79
2022/09/14 09:28:58;;;;;;;4.63;1.17;;;;;;;17.67;70.50;99958.94;5056347;28;20239;-79
2022/09/14 09:31:30;;;;;;;1.87;1.03;;;;;;;17.75;71.25;99947.09;5056555;28;20211;-79
2022/09/14 09:33:57;;;;;;;3.23;1.27;;;;;;;17.82;70.88;99944.03;5049080;28;20228;-79
2022/09/14 09:36:24;;;;;;;3.90;1.40;;;;;;;17.83;71.40;99932.53;5053039;28;20279;-79
2022/09/14 09:38:50;;;;;;;2.47;1.13;;;;;;;17.85;71.12;99935.94;5049413;28;20615;-79
2022/09/14 09:41:20;;;;;;;8.97;1.30;;;;;;;17.94;71.12;99949.56;5044903;28;20226;-79
2022/09/14 09:43:59;;;;;;;4.13;1.43;;;;;;;17.99;71.11;99948.34;5044032;28;20260;-79
2022/09/14 09:46:27;;;;;;;3.73;1.00;;;;;;;18.05;71.05;99945.34;5044565;28;20642;-78
2022/09/14 09:48:54;;;;;;;4.00;1.30;;;;;;;18.09;70.03;99964.53;5045994;28;20199;-79
2022/09/14 09:51:27;;;;;;;2.67;1.17;;;;;;;18.08;69.69;99980.44;5045762;28;20200;-79
2022/09/14 09:53:58;;;;;;;2.13;1.00;;;;;;;18.08;68.75;100013.03;5046053;28;20273;-79
2022/09/14 09:56:28;;;;;;;2.60;1.13;;;;;;;18.09;68.73;100021.78;5046254;28;20574;-79
2022/09/14 09:58:55;;;;;;;3.30;1.90;;;;;;;18.15;69.18;100011.72;5046625;28;20204;-78
2022/09/14 10:01:29;;;;;;;3.17;0.80;;;;;;;18.18;68.60;99987.78;5046845;28;20198;-79
2022/09/14 10:04:15;;;;;;;3.23;1.07;;;;;;;18.21;67.78;100026.38;5047316;28;20239;-79
2022/09/14 10:06:44;;;;;;;2.17;0.83;;;;;;;18.21;67.49;100031.66;5054828;28;20235;-79
2022/09/14 10:09:15;;;;;;;3.17;1.20;;;;;;;18.26;68.87;99997.91;5046568;28;20614;-79
2022/09/14 10:11:42;;;;;;;9.27;1.87;;;;;;;18.37;67.66;100016.59;5046159;28;20229;-79
2022/09/14 10:14:22;;;;;;;3.90;1.57;;;;;;;18.46;66.56;100076.88;5044328;28;20292;-79
2022/09/14 10:16:50;;;;;;;4.97;1.20;;;;;;;18.34;65.39;100145.44;5044167;28;20214;-79
2022/09/14 10:19:22;;;;;;;5.70;1.40;;;;;;;18.34;64.99;100182.44;5045934;28;20204;-78
2022/09/14 10:22:04;;;;;;;4.03;1.20;;;;;;;18.42;65.53;100149.34;5046474;28;20200;-79
2022/09/14 10:24:32;;;;;;;2.57;1.07;;;;;;;18.03;64.67;100169.09;5050806;28;20229;-79
2022/09/14 10:26:59;;;;;;;3.00;1.00;;;;;;;18.18;65.81;100135.72;5048132;28;20203;-79
2022/09/14 10:29:35;;;;;;;1.60;0.80;;;;;;;18.31;65.83;100108.59;5046038;28;20217;-79
2022/09/14 10:32:16;;;;;;;5.90;1.13;;;;;;;18.36;65.35;100112.69;5046415;28;20617;-79
2022/09/14 10:34:43;;;;;;;3.20;1.07;;;;;;;18.37;65.24;100100.31;5052035;28;20262;-78
2022/09/14 10:37:19;;;;;;;4.27;1.57;;;;;;;18.19;63.17;100112.78;5048771;28;20204;-79
2022/09/14 10:39:56;;;;;;;3.80;1.10;;;;;;;18.23;64.14;100138.94;5044655;28;20262;-78
2022/09/14 10:42:32;;;;;;;2.87;1.23;;;;;;;18.33;65.47;100104.94;5046569;28;20582;-79
2022/09/14 10:45:13;;;;;;;2.63;0.90;;;;;;;18.37;66.65;100045.66;5046001;28;20220;-79
2022/09/14 10:47:55;;;;;;;3.47;1.17;;;;;;;18.46;65.74;100023.16;5046056;28;20220;-79
2022/09/14 10:50:33;;;;;;;4.03;1.60;;;;;;;18.54;67.87;99980.44;5043863;28;20201;-79
2022/09/14 10:53:10;;;;;;;2.20;1.13;;;;;;;18.59;65.48;100018.00;5046676;28;20201;-79
2022/09/14 10:55:43;;;;;;;3.63;1.03;;;;;;;18.64;64.05;100084.69;5048690;28;20231;-79
2022/09/14 10:58:32;;;;;;;3.03;1.53;;;;;;;18.63;65.21;100075.91;5047628;28;20534;-79
2022/09/14 11:01:12;;;;;;;2.40;0.97;;;;;;;18.66;64.68;100083.63;5046431;28;20231;-79
2022/09/14 11:04:02;;;;;;;3.63;1.13;;;;;;;18.69;64.96;100092.34;5044165;28;20662;-79
2022/09/14 11:06:39;;;;;;;6.40;1.73;;;;;;;18.58;63.84;100143.19;5053603;28;20200;-79
2022/09/14 11:09:14;;;;;;;2.63;0.90;;;;;;;18.65;64.88;100102.22;5046691;28;20208;-79
2022/09/14 11:11:52;;;;;;;1.63;0.77;;;;;;;18.74;64.33;100077.91;5046923;28;20257;-79
2022/09/14 11:14:32;;;;;;;2.90;0.90;;;;;;;18.71;63.25;100108.97;5048036;28;20224;-79
2022/09/14 11:17:38;;;;;;;3.63;0.93;;;;;;;18.74;63.49;100127.31;5050582;28;20204;-79
2022/09/14 11:20:17;;;;;;;3.07;1.00;;;;;;;18.77;63.43;100108.59;5051078;28;20205;-79
2022/09/14 11:22:51;;;;;;;2.23;1.10;;;;;;;18.77;64.86;100066.28;5051149;28;20227;-79
2022/09/14 11:25:23;;;;;;;3.07;1.00;;;;;;;18.82;62.71;100096.00;5050556;28;20235;-79
2022/09/14 11:27:52;;;;;;;2.50;1.20;;;;;;;18.78;62.07;100156.13;5051498;28;20207;-79
2022/09/14 11:30:20;;;;;;;1.33;0.70;;;;;;;18.81;63.98;100121.59;5050559;28;20231;-81
2022/09/14 11:32:53;;;;;;;3.00;0.93;;;;;;;18.91;65.25;100047.00;5049688;28;20735;-80
2022/09/14 11:35:24;;;;;;;1.63;0.70;;;;;;;18.92;65.37;100012.53;5055187;28;20224;-78
2022/09/14 11:37:57;;;;;;;4.07;1.00;;;;;;;18.88;63.70;100049.84;5061558;28;20205;-80
2022/09/14 11:40:28;;;;;;;3.30;1.07;;;;;;;18.85;63.43;100090.53;5062419;28;20204;-80
2022/09/14 11:43:00;;;;;;;3.97;1.10;;;;;;;18.83;63.36;100085.34;5059091;28;20213;-85